Terminal Aerodrome Forecast
Issued by NWS Portland, OR

Home | Current Version | Previous Version | Text Only | Print | Product List | Glossary On
Versions: 1 2 3 4 5 6 7 8 9 10 11 12 13 14 15 16 17 18 19 20 21 22 23 24 25 26 27
000
FTUS46 KPQR 191127
TAFSLE
TAF
KSLE 191127Z 1912/2012 VRB03KT P6SM SCT045 BKN250
     FM191500 VRB03KT P6SM BKN035 OVC050
     FM192000 36006KT P6SM SCT060
     FM192300 36009KT P6SM SKC
     FM200400 VRB03KT P6SM SKC=

USA.gov is the U.S. government's official web portal to all federal, state and local government web resources and services.